Byzantion — SZMH — position and weather

sailwx.info

Track history (hours):
 
Tides and Currents Weather Stations Pressure Air Temp Water Temp Dewpoint Dewpoint Depression Visibility Wind Speed Wind Dir Waves Ship Positions

Byzantion

Last reported at 2017-Dec-18 03:00 UTC. Time now 2017-Dec-18 03:15 UTC.
Position N 44°25' E 037°22'.

Length 183 m; draft 7.8 m.

Type: Ship (hazmat cat A). MMSI: 240635000.

Date/timePositionNaut miles runAvg speedWind from/ knotsBaromVisibWave heightAir tempDewpointWater temp
2017-Dec-18 03:00N 44°25' E 037°22'1 2.1
2017-Dec-18 02:27N 44°24' E 037°24'1 2.2
2017-Dec-18 01:55N 44°24' E 037°25'1 2.2
2017-Dec-18 01:30N 44°24' E 037°27'1 2.2
2017-Dec-18 01:00N 44°24' E 037°28'1 1.8
2017-Dec-18 00:30N 44°24' E 037°29'1 1.4
2017-Dec-18 00:00N 44°24' E 037°30'1 1.3
2017-Dec-17 23:30N 44°24' E 037°31'1 1.1
2017-Dec-17 23:00N 44°24' E 037°32'1 1.1
2017-Dec-17 22:29N 44°24' E 037°33'1 1.5
2017-Dec-17 22:00N 44°24' E 037°34'4 8.9
2017-Dec-17 21:30N 44°27' E 037°30'3 5.2
2017-Dec-17 21:00N 44°28' E 037°26'1 1.5
2017-Dec-17 20:30N 44°27' E 037°26'1 1.5
2017-Dec-17 20:00N 44°27' E 037°26'1 1.4
2017-Dec-17 19:29N 44°26' E 037°26'1 1.5
2017-Dec-17 19:00N 44°25' E 037°26'1 1.6
2017-Dec-17 18:31N 44°25' E 037°25'5 9.8
2017-Dec-17 18:00N 44°29' E 037°22'4 8.7
2017-Dec-17 17:30N 44°32' E 037°18'1 1.2
2017-Dec-17 16:58N 44°32' E 037°18'1 1.1
2017-Dec-17 15:40N 44°30' E 037°19'0 1.3
2017-Dec-17 15:18N 44°30' E 037°19'1 1.3
2017-Dec-17 14:34N 44°29' E 037°19'0 1.3
2017-Dec-17 14:16N 44°28' E 037°20'1 1.3
2017-Dec-17 13:50N 44°28' E 037°20'0 0.9
2017-Dec-17 13:30N 44°28' E 037°20'2 4.7
2017-Dec-17 12:58N 44°26' E 037°18'5 9.4
2017-Dec-17 12:28N 44°22' E 037°13'1 1.1
2017-Dec-17 12:00N 44°23' E 037°14'1 1.1
2017-Dec-17 11:30N 44°23' E 037°14'0 0.8
2017-Dec-17 10:58N 44°23' E 037°15'0 0.5
2017-Dec-17 10:30N 44°24' E 037°15'0 0.6
2017-Dec-17 10:00N 44°24' E 037°16'0 0.8
2017-Dec-17 09:30N 44°24' E 037°16'1 0.9
2017-Dec-17 08:57N 44°24' E 037°17'0 0.9
2017-Dec-17 08:30N 44°24' E 037°17'1 0.8
2017-Dec-17 07:51N 44°24' E 037°18'0 0.8
2017-Dec-17 07:26N 44°24' E 037°19'0 0.9
2017-Dec-17 06:53N 44°24' E 037°19'0 0.9
2017-Dec-17 06:28N 44°24' E 037°20'0 1.1
2017-Dec-17 06:00N 44°24' E 037°20'1 1.3
2017-Dec-17 05:27N 44°24' E 037°21'1 1.1
2017-Dec-17 04:59N 44°24' E 037°22'1 1.0
2017-Dec-17 04:24N 44°24' E 037°23'0 1.1
2017-Dec-17 04:00N 44°24' E 037°24'1 1.3
2017-Dec-17 03:26N 44°24' E 037°25'1 1.5
2017-Dec-17 03:00N 44°24' E 037°26'1 1.4
2017-Dec-17 02:30N 44°24' E 037°27'1 1.4
2017-Dec-17 02:00N 44°24' E 037°28'1 1.3
2017-Dec-17 01:29N 44°24' E 037°28'1 1.3
2017-Dec-17 01:00N 44°24' E 037°29'1 1.3
2017-Dec-17 00:30N 44°24' E 037°30'1 1.3
2017-Dec-17 00:00N 44°23' E 037°31'0 0.9
2017-Dec-16 23:30N 44°23' E 037°32'1 1.6
2017-Dec-16 23:00N 44°24' E 037°31'5 9.8
2017-Dec-16 22:30N 44°28' E 037°27'1 1.2
2017-Dec-16 22:00N 44°27' E 037°28'1 1.3
2017-Dec-16 21:30N 44°27' E 037°28'1 1.2
2017-Dec-16 20:58N 44°26' E 037°29'1 1.3
2017-Dec-16 20:29N 44°26' E 037°29'1 1.3
2017-Dec-16 19:59N 44°26' E 037°30'1 1.2
2017-Dec-16 19:30N 44°25' E 037°31'1 1.0
2017-Dec-16 18:59N 44°25' E 037°31'0 0.9
2017-Dec-16 18:30N 44°24' E 037°31'0 0.7
2017-Dec-16 18:00N 44°24' E 037°31'0 0.8
2017-Dec-16 17:29N 44°24' E 037°31'0 0.8
2017-Dec-16 17:00N 44°23' E 037°31'1 1.6
2017-Dec-16 16:30N 44°23' E 037°30'4 8.7
2017-Dec-16 16:00N 44°22' E 037°23'4 7.6
2017-Dec-16 15:29N 44°23' E 037°18'1 0.8
2017-Dec-16 13:44N 44°23' E 037°16'1 1.4
2017-Dec-16 13:17N 44°23' E 037°17'0 1.5
2017-Dec-16 13:00N 44°23' E 037°18'1 1.6
2017-Dec-16 12:30N 44°23' E 037°19'1 1.6
2017-Dec-16 11:59N 44°23' E 037°20'1 1.6
2017-Dec-16 11:30N 44°24' E 037°21'1 1.7
2017-Dec-16 11:00N 44°24' E 037°22'1 1.8
2017-Dec-16 10:30N 44°24' E 037°23'1 1.8
2017-Dec-16 10:00N 44°24' E 037°25'1 1.7
2017-Dec-16 09:30N 44°24' E 037°26'1 1.7
2017-Dec-16 09:00N 44°25' E 037°27'1 1.7
2017-Dec-16 08:30N 44°25' E 037°28'1 1.6
2017-Dec-16 08:00N 44°25' E 037°29'1 1.7
2017-Dec-16 07:30N 44°25' E 037°30'1 1.7
2017-Dec-16 07:00N 44°25' E 037°32'1 1.7
2017-Dec-16 06:30N 44°25' E 037°33'1 1.6
2017-Dec-16 06:00N 44°25' E 037°34'1 1.9
2017-Dec-16 05:30N 44°26' E 037°35'1 1.8
2017-Dec-16 05:00N 44°26' E 037°36'3 6.0
2017-Dec-16 04:30N 44°24' E 037°33'612.1
2017-Dec-16 04:00N 44°22' E 037°25'612.4
2017-Dec-16 03:30N 44°19' E 037°17'612.5
2017-Dec-16 02:59N 44°17' E 037°09'612.5
2017-Dec-16 02:29N 44°15' E 037°01'612.3
2017-Dec-16 02:00N 44°12' E 036°53'612.3
2017-Dec-16 01:30N 44°09' E 036°46'612.5
2017-Dec-16 01:00N 44°06' E 036°38'38610.8
2017-Dec-14 13:06N 40°59' E 028°60'210.1
2017-Dec-14 12:55N 40°57' E 028°60'410.5
2017-Dec-14 12:30N 40°53' E 029°01'611.1
2017-Dec-14 12:00N 40°47' E 029°03'1 2.1
2017-Dec-14 11:28N 40°46' E 029°03'0 0.8
2017-Dec-14 10:59N 40°47' E 029°02'0 0.9
2017-Dec-14 10:30N 40°47' E 029°02'0 0.9
2017-Dec-14 10:00N 40°47' E 029°01'0 0.8
2017-Dec-14 09:30N 40°47' E 029°01'0 0.8
2017-Dec-14 08:57N 40°47' E 029°00'0 0.8
2017-Dec-14 08:29N 40°47' E 028°60'0 0.9
2017-Dec-14 07:58N 40°47' E 028°59'1 2.1
2017-Dec-14 07:25N 40°48' E 028°59'1 2.1
2017-Dec-14 06:57N 40°49' E 028°60'1 1.2
2017-Dec-14 06:26N 40°48' E 029°00'4 8.7
2017-Dec-14 06:00N 40°46' E 029°04'3 6.5
2017-Dec-14 05:30N 40°47' E 029°09'0 0.3
2017-Dec-14 05:00N 40°47' E 029°09'0 0.5
2017-Dec-14 04:30N 40°47' E 029°08'0 0.5
2017-Dec-14 04:00N 40°46' E 029°08'0 0.5
2017-Dec-14 03:30N 40°46' E 029°08'0 0.4
2017-Dec-14 03:00N 40°46' E 029°07'0 0.5
2017-Dec-14 02:30N 40°46' E 029°07'0 0.8
2017-Dec-14 02:00N 40°46' E 029°06'0 0.9
2017-Dec-14 01:30N 40°46' E 029°06'0 0.9
2017-Dec-14 00:59N 40°46' E 029°05'0 0.8
2017-Dec-14 00:30N 40°46' E 029°05'0 0.9
2017-Dec-14 00:00N 40°47' E 029°04'0 0.8
2017-Dec-13 23:30N 40°47' E 029°04'0 0.8
2017-Dec-13 22:57N 40°47' E 029°03'0 0.7
2017-Dec-13 22:27N 40°47' E 029°03'0 0.8
2017-Dec-13 22:00N 40°47' E 029°02'0 0.6
2017-Dec-13 21:30N 40°47' E 029°02'0 0.5
2017-Dec-13 21:00N 40°47' E 029°02'0 0.7
2017-Dec-13 20:30N 40°47' E 029°01'0 0.8
2017-Dec-13 19:59N 40°47' E 029°01'0 0.7
2017-Dec-13 19:29N 40°47' E 029°00'1 1.1
2017-Dec-13 19:00N 40°48' E 028°60'5 9.4
2017-Dec-13 18:30N 40°52' E 028°57'611.1
2017-Dec-13 18:00N 40°56' E 028°53'0 0.1
2017-Dec-13 16:08N 40°56' E 028°53'0 0.1
2017-Dec-13 15:07N 40°56' E 028°53'0 0.1
2017-Dec-13 14:45N 40°57' E 028°53'0 0.0
2017-Dec-13 14:30N 40°57' E 028°53'0 0.0
2017-Dec-13 13:17N 40°57' E 028°53'0 0.0
2017-Dec-13 12:54N 40°57' E 028°53'0 0.0
2017-Dec-13 12:19N 40°57' E 028°53'0 0.0
2017-Dec-13 11:57N 40°57' E 028°53'0 0.0
2017-Dec-13 11:20N 40°57' E 028°53'0 0.0
2017-Dec-13 01:22N 40°57' E 028°53'0 0.0
2017-Dec-13 00:59N 40°57' E 028°53'0 0.0
2017-Dec-12 23:07N 40°57' E 028°53'0 0.0
2017-Dec-12 22:02N 40°57' E 028°53'0 0.0
2017-Dec-12 21:47N 40°57' E 028°53'0 0.0
2017-Dec-12 21:30N 40°57' E 028°53'0 0.0
2017-Dec-12 20:57N 40°57' E 028°53'0 0.1
2017-Dec-12 20:25N 40°57' E 028°53'0 0.0
2017-Dec-12 19:24N 40°57' E 028°53'0 0.0
2017-Dec-12 17:21N 40°57' E 028°53'0 0.0
2017-Dec-12 16:48N 40°57' E 028°53'0 0.0
2017-Dec-12 16:26N 40°57' E 028°53'0 0.0
2017-Dec-12 15:38N 40°57' E 028°53'0 0.1
2017-Dec-12 15:28N 40°57' E 028°53'0 0.0
2017-Dec-12 14:08N 40°57' E 028°53'0 0.0
2017-Dec-12 13:46N 40°57' E 028°53'0 0.0
2017-Dec-12 13:30N 40°57' E 028°53'0 0.0
2017-Dec-12 12:59N 40°57' E 028°53'0 0.0
2017-Dec-12 11:33N 40°57' E 028°53'0 0.0
2017-Dec-12 11:17N 40°57' E 028°53'0 0.0
2017-Dec-12 11:00N 40°57' E 028°53'0 0.0
2017-Dec-12 07:14N 40°57' E 028°53'0 0.0
2017-Dec-12 06:43N 40°57' E 028°53'0 0.0
2017-Dec-12 06:20N 40°57' E 028°53'0 0.0
2017-Dec-12 04:04N 40°57' E 028°53'0 0.0
2017-Dec-12 04:00N 40°57' E 028°53'0 0.0
2017-Dec-12 03:29N 40°57' E 028°53'0 0.0
2017-Dec-12 02:56N 40°57' E 028°53'0 0.1
2017-Dec-12 02:28N 40°57' E 028°53'0 0.0
2017-Dec-12 02:00N 40°57' E 028°53'0 0.0
2017-Dec-12 01:30N 40°57' E 028°53'0 0.0
2017-Dec-12 01:00N 40°57' E 028°53'0 0.0
2017-Dec-12 00:26N 40°57' E 028°53'0 0.0
2017-Dec-12 00:00N 40°57' E 028°53'0 0.0
2017-Dec-11 23:16N 40°57' E 028°53'0 0.0
2017-Dec-11 22:41N 40°57' E 028°53'0 0.0
2017-Dec-11 22:17N 40°57' E 028°53'0 0.0
2017-Dec-11 21:56N 40°57' E 028°53'0 0.0
2017-Dec-11 21:28N 40°57' E 028°53'0 0.0
2017-Dec-11 20:25N 40°57' E 028°53'0 0.0
2017-Dec-11 19:44N 40°57' E 028°53'0 0.0
2017-Dec-11 19:29N 40°57' E 028°53'0 0.0
2017-Dec-11 18:48N 40°57' E 028°53'0 0.0
2017-Dec-11 16:57N 40°57' E 028°53'0 0.0
2017-Dec-11 16:08N 40°57' E 028°53'0 0.0
2017-Dec-11 15:53N 40°57' E 028°53'0 0.0
2017-Dec-11 15:25N 40°57' E 028°53'0 0.0
2017-Dec-11 13:54N 40°57' E 028°53'0 0.3
2017-Dec-11 13:28N 40°56' E 028°53'3 4.4
2017-Dec-11 12:47N 40°54' E 028°54'411.5
2017-Dec-11 12:25N 40°51' E 028°50'223 6.6
2017-Dec-10 02:24N 38°09' E 025°32'513.2
2017-Dec-10 02:00N 38°04' E 025°34'613.3
2017-Dec-10 01:30N 37°58' E 025°37'713.5
2017-Dec-10 01:00N 37°51' E 025°40'713.4
2017-Dec-10 00:30N 37°45' E 025°43'713.4
2017-Dec-10 00:00N 37°39' E 025°46'713.6
2017-Dec-09 23:30N 37°32' E 025°49'713.4
2017-Dec-09 23:00N 37°26' E 025°52'612.2
2017-Dec-09 22:30N 37°22' E 025°58'612.5
2017-Dec-09 22:00N 37°19' E 026°05'612.6
2017-Dec-09 21:30N 37°16' E 026°12'612.9
2017-Dec-09 21:00N 37°13' E 026°18'713.0
2017-Dec-09 20:30N 37°09' E 026°26'813.1
2017-Dec-09 19:55N 37°06' E 026°34'512.1
2017-Dec-09 19:28N 37°02' E 026°38'613.6
2017-Dec-09 19:00N 36°55' E 026°39'713.4
2017-Dec-09 18:30N 36°49' E 026°40'713.3
2017-Dec-09 18:00N 36°42' E 026°42'713.4
2017-Dec-09 17:30N 36°36' E 026°44'713.3
2017-Dec-09 17:00N 36°30' E 026°49'713.4
2017-Dec-09 16:27N 36°25' E 026°55'1413.3
2017-Dec-09 15:26N 36°14' E 027°06'  
Track history (hours):
 
Tides and Currents Weather Stations Pressure Air Temp Water Temp Dewpoint Dewpoint Depression Visibility Wind Speed Wind Dir Waves Ship Positions

Byzantion

Last reported at 2017-Dec-18 03:00 UTC. Time now 2017-Dec-18 03:15 UTC.
Position N 44°25' E 037°22'.

Length 183 m; draft 7.8 m.

Type: Ship (hazmat cat A). MMSI: 240635000.

Date/timePositionNaut miles runAvg speedWind from/ knotsBaromVisibWave heightAir tempDewpointWater temp
2017-Dec-18 03:00N 44°25' E 037°22'1 2.1
2017-Dec-18 02:27N 44°24' E 037°24'1 2.2
2017-Dec-18 01:55N 44°24' E 037°25'1 2.2
2017-Dec-18 01:30N 44°24' E 037°27'1 2.2
2017-Dec-18 01:00N 44°24' E 037°28'1 1.8
2017-Dec-18 00:30N 44°24' E 037°29'1 1.4
2017-Dec-18 00:00N 44°24' E 037°30'1 1.3
2017-Dec-17 23:30N 44°24' E 037°31'1 1.1
2017-Dec-17 23:00N 44°24' E 037°32'1 1.1
2017-Dec-17 22:29N 44°24' E 037°33'1 1.5
2017-Dec-17 22:00N 44°24' E 037°34'4 8.9
2017-Dec-17 21:30N 44°27' E 037°30'3 5.2
2017-Dec-17 21:00N 44°28' E 037°26'1 1.5
2017-Dec-17 20:30N 44°27' E 037°26'1 1.5
2017-Dec-17 20:00N 44°27' E 037°26'1 1.4
2017-Dec-17 19:29N 44°26' E 037°26'1 1.5
2017-Dec-17 19:00N 44°25' E 037°26'1 1.6
2017-Dec-17 18:31N 44°25' E 037°25'5 9.8
2017-Dec-17 18:00N 44°29' E 037°22'4 8.7
2017-Dec-17 17:30N 44°32' E 037°18'1 1.2
2017-Dec-17 16:58N 44°32' E 037°18'1 1.1
2017-Dec-17 15:40N 44°30' E 037°19'0 1.3
2017-Dec-17 15:18N 44°30' E 037°19'1 1.3
2017-Dec-17 14:34N 44°29' E 037°19'0 1.3
2017-Dec-17 14:16N 44°28' E 037°20'1 1.3
2017-Dec-17 13:50N 44°28' E 037°20'0 0.9
2017-Dec-17 13:30N 44°28' E 037°20'2 4.7
2017-Dec-17 12:58N 44°26' E 037°18'5 9.4
2017-Dec-17 12:28N 44°22' E 037°13'1 1.1
2017-Dec-17 12:00N 44°23' E 037°14'1 1.1
2017-Dec-17 11:30N 44°23' E 037°14'0 0.8
2017-Dec-17 10:58N 44°23' E 037°15'0 0.5
2017-Dec-17 10:30N 44°24' E 037°15'0 0.6
2017-Dec-17 10:00N 44°24' E 037°16'0 0.8
2017-Dec-17 09:30N 44°24' E 037°16'1 0.9
2017-Dec-17 08:57N 44°24' E 037°17'0 0.9
2017-Dec-17 08:30N 44°24' E 037°17'1 0.8
2017-Dec-17 07:51N 44°24' E 037°18'0 0.8
2017-Dec-17 07:26N 44°24' E 037°19'0 0.9
2017-Dec-17 06:53N 44°24' E 037°19'0 0.9
2017-Dec-17 06:28N 44°24' E 037°20'0 1.1
2017-Dec-17 06:00N 44°24' E 037°20'1 1.3
2017-Dec-17 05:27N 44°24' E 037°21'1 1.1
2017-Dec-17 04:59N 44°24' E 037°22'1 1.0
2017-Dec-17 04:24N 44°24' E 037°23'0 1.1
2017-Dec-17 04:00N 44°24' E 037°24'1 1.3
2017-Dec-17 03:26N 44°24' E 037°25'1 1.5
2017-Dec-17 03:00N 44°24' E 037°26'1 1.4
2017-Dec-17 02:30N 44°24' E 037°27'1 1.4
2017-Dec-17 02:00N 44°24' E 037°28'1 1.3
2017-Dec-17 01:29N 44°24' E 037°28'1 1.3
2017-Dec-17 01:00N 44°24' E 037°29'1 1.3
2017-Dec-17 00:30N 44°24' E 037°30'1 1.3
2017-Dec-17 00:00N 44°23' E 037°31'0 0.9
2017-Dec-16 23:30N 44°23' E 037°32'1 1.6
2017-Dec-16 23:00N 44°24' E 037°31'5 9.8
2017-Dec-16 22:30N 44°28' E 037°27'1 1.2
2017-Dec-16 22:00N 44°27' E 037°28'1 1.3
2017-Dec-16 21:30N 44°27' E 037°28'1 1.2
2017-Dec-16 20:58N 44°26' E 037°29'1 1.3
2017-Dec-16 20:29N 44°26' E 037°29'1 1.3
2017-Dec-16 19:59N 44°26' E 037°30'1 1.2
2017-Dec-16 19:30N 44°25' E 037°31'1 1.0
2017-Dec-16 18:59N 44°25' E 037°31'0 0.9
2017-Dec-16 18:30N 44°24' E 037°31'0 0.7
2017-Dec-16 18:00N 44°24' E 037°31'0 0.8
2017-Dec-16 17:29N 44°24' E 037°31'0 0.8
2017-Dec-16 17:00N 44°23' E 037°31'1 1.6
2017-Dec-16 16:30N 44°23' E 037°30'4 8.7
2017-Dec-16 16:00N 44°22' E 037°23'4 7.6
2017-Dec-16 15:29N 44°23' E 037°18'1 0.8
2017-Dec-16 13:44N 44°23' E 037°16'1 1.4
2017-Dec-16 13:17N 44°23' E 037°17'0 1.5
2017-Dec-16 13:00N 44°23' E 037°18'1 1.6
2017-Dec-16 12:30N 44°23' E 037°19'1 1.6
2017-Dec-16 11:59N 44°23' E 037°20'1 1.6
2017-Dec-16 11:30N 44°24' E 037°21'1 1.7
2017-Dec-16 11:00N 44°24' E 037°22'1 1.8
2017-Dec-16 10:30N 44°24' E 037°23'1 1.8
2017-Dec-16 10:00N 44°24' E 037°25'1 1.7
2017-Dec-16 09:30N 44°24' E 037°26'1 1.7
2017-Dec-16 09:00N 44°25' E 037°27'1 1.7
2017-Dec-16 08:30N 44°25' E 037°28'1 1.6
2017-Dec-16 08:00N 44°25' E 037°29'1 1.7
2017-Dec-16 07:30N 44°25' E 037°30'1 1.7
2017-Dec-16 07:00N 44°25' E 037°32'1 1.7
2017-Dec-16 06:30N 44°25' E 037°33'1 1.6
2017-Dec-16 06:00N 44°25' E 037°34'1 1.9
2017-Dec-16 05:30N 44°26' E 037°35'1 1.8
2017-Dec-16 05:00N 44°26' E 037°36'3 6.0
2017-Dec-16 04:30N 44°24' E 037°33'612.1
2017-Dec-16 04:00N 44°22' E 037°25'612.4
2017-Dec-16 03:30N 44°19' E 037°17'612.5
2017-Dec-16 02:59N 44°17' E 037°09'612.5
2017-Dec-16 02:29N 44°15' E 037°01'612.3
2017-Dec-16 02:00N 44°12' E 036°53'612.3
2017-Dec-16 01:30N 44°09' E 036°46'612.5
2017-Dec-16 01:00N 44°06' E 036°38'38610.8
2017-Dec-14 13:06N 40°59' E 028°60'210.1
2017-Dec-14 12:55N 40°57' E 028°60'410.5
2017-Dec-14 12:30N 40°53' E 029°01'611.1
2017-Dec-14 12:00N 40°47' E 029°03'1 2.1
2017-Dec-14 11:28N 40°46' E 029°03'0 0.8
2017-Dec-14 10:59N 40°47' E 029°02'0 0.9
2017-Dec-14 10:30N 40°47' E 029°02'0 0.9
2017-Dec-14 10:00N 40°47' E 029°01'0 0.8
2017-Dec-14 09:30N 40°47' E 029°01'0 0.8
2017-Dec-14 08:57N 40°47' E 029°00'0 0.8
2017-Dec-14 08:29N 40°47' E 028°60'0 0.9
2017-Dec-14 07:58N 40°47' E 028°59'1 2.1
2017-Dec-14 07:25N 40°48' E 028°59'1 2.1
2017-Dec-14 06:57N 40°49' E 028°60'1 1.2
2017-Dec-14 06:26N 40°48' E 029°00'4 8.7
2017-Dec-14 06:00N 40°46' E 029°04'3 6.5
2017-Dec-14 05:30N 40°47' E 029°09'0 0.3
2017-Dec-14 05:00N 40°47' E 029°09'0 0.5
2017-Dec-14 04:30N 40°47' E 029°08'0 0.5
2017-Dec-14 04:00N 40°46' E 029°08'0 0.5
2017-Dec-14 03:30N 40°46' E 029°08'0 0.4
2017-Dec-14 03:00N 40°46' E 029°07'0 0.5
2017-Dec-14 02:30N 40°46' E 029°07'0 0.8
2017-Dec-14 02:00N 40°46' E 029°06'0 0.9
2017-Dec-14 01:30N 40°46' E 029°06'0 0.9
2017-Dec-14 00:59N 40°46' E 029°05'0 0.8
2017-Dec-14 00:30N 40°46' E 029°05'0 0.9
2017-Dec-14 00:00N 40°47' E 029°04'0 0.8
2017-Dec-13 23:30N 40°47' E 029°04'0 0.8
2017-Dec-13 22:57N 40°47' E 029°03'0 0.7
2017-Dec-13 22:27N 40°47' E 029°03'0 0.8
2017-Dec-13 22:00N 40°47' E 029°02'0 0.6
2017-Dec-13 21:30N 40°47' E 029°02'0 0.5
2017-Dec-13 21:00N 40°47' E 029°02'0 0.7
2017-Dec-13 20:30N 40°47' E 029°01'0 0.8
2017-Dec-13 19:59N 40°47' E 029°01'0 0.7
2017-Dec-13 19:29N 40°47' E 029°00'1 1.1
2017-Dec-13 19:00N 40°48' E 028°60'5 9.4
2017-Dec-13 18:30N 40°52' E 028°57'611.1
2017-Dec-13 18:00N 40°56' E 028°53'0 0.1
2017-Dec-13 16:08N 40°56' E 028°53'0 0.1
2017-Dec-13 15:07N 40°56' E 028°53'0 0.1
2017-Dec-13 14:45N 40°57' E 028°53'0 0.0
2017-Dec-13 14:30N 40°57' E 028°53'0 0.0
2017-Dec-13 13:17N 40°57' E 028°53'0 0.0
2017-Dec-13 12:54N 40°57' E 028°53'0 0.0
2017-Dec-13 12:19N 40°57' E 028°53'0 0.0
2017-Dec-13 11:57N 40°57' E 028°53'0 0.0
2017-Dec-13 11:20N 40°57' E 028°53'0 0.0
2017-Dec-13 01:22N 40°57' E 028°53'0 0.0
2017-Dec-13 00:59N 40°57' E 028°53'0 0.0
2017-Dec-12 23:07N 40°57' E 028°53'0 0.0
2017-Dec-12 22:02N 40°57' E 028°53'0 0.0
2017-Dec-12 21:47N 40°57' E 028°53'0 0.0
2017-Dec-12 21:30N 40°57' E 028°53'0 0.0
2017-Dec-12 20:57N 40°57' E 028°53'0 0.1
2017-Dec-12 20:25N 40°57' E 028°53'0 0.0
2017-Dec-12 19:24N 40°57' E 028°53'0 0.0
2017-Dec-12 17:21N 40°57' E 028°53'0 0.0
2017-Dec-12 16:48N 40°57' E 028°53'0 0.0
2017-Dec-12 16:26N 40°57' E 028°53'0 0.0
2017-Dec-12 15:38N 40°57' E 028°53'0 0.1
2017-Dec-12 15:28N 40°57' E 028°53'0 0.0
2017-Dec-12 14:08N 40°57' E 028°53'0 0.0
2017-Dec-12 13:46N 40°57' E 028°53'0 0.0
2017-Dec-12 13:30N 40°57' E 028°53'0 0.0
2017-Dec-12 12:59N 40°57' E 028°53'0 0.0
2017-Dec-12 11:33N 40°57' E 028°53'0 0.0
2017-Dec-12 11:17N 40°57' E 028°53'0 0.0
2017-Dec-12 11:00N 40°57' E 028°53'0 0.0
2017-Dec-12 07:14N 40°57' E 028°53'0 0.0
2017-Dec-12 06:43N 40°57' E 028°53'0 0.0
2017-Dec-12 06:20N 40°57' E 028°53'0 0.0
2017-Dec-12 04:04N 40°57' E 028°53'0 0.0
2017-Dec-12 04:00N 40°57' E 028°53'0 0.0
2017-Dec-12 03:29N 40°57' E 028°53'0 0.0
2017-Dec-12 02:56N 40°57' E 028°53'0 0.1
2017-Dec-12 02:28N 40°57' E 028°53'0 0.0
2017-Dec-12 02:00N 40°57' E 028°53'0 0.0
2017-Dec-12 01:30N 40°57' E 028°53'0 0.0
2017-Dec-12 01:00N 40°57' E 028°53'0 0.0
2017-Dec-12 00:26N 40°57' E 028°53'0 0.0
2017-Dec-12 00:00N 40°57' E 028°53'0 0.0
2017-Dec-11 23:16N 40°57' E 028°53'0 0.0
2017-Dec-11 22:41N 40°57' E 028°53'0 0.0
2017-Dec-11 22:17N 40°57' E 028°53'0 0.0
2017-Dec-11 21:56N 40°57' E 028°53'0 0.0
2017-Dec-11 21:28N 40°57' E 028°53'0 0.0
2017-Dec-11 20:25N 40°57' E 028°53'0 0.0
2017-Dec-11 19:44N 40°57' E 028°53'0 0.0
2017-Dec-11 19:29N 40°57' E 028°53'0 0.0
2017-Dec-11 18:48N 40°57' E 028°53'0 0.0
2017-Dec-11 16:57N 40°57' E 028°53'0 0.0
2017-Dec-11 16:08N 40°57' E 028°53'0 0.0
2017-Dec-11 15:53N 40°57' E 028°53'0 0.0
2017-Dec-11 15:25N 40°57' E 028°53'0 0.0
2017-Dec-11 13:54N 40°57' E 028°53'0 0.3
2017-Dec-11 13:28N 40°56' E 028°53'3 4.4
2017-Dec-11 12:47N 40°54' E 028°54'411.5
2017-Dec-11 12:25N 40°51' E 028°50'223 6.6
2017-Dec-10 02:24N 38°09' E 025°32'513.2
2017-Dec-10 02:00N 38°04' E 025°34'613.3
2017-Dec-10 01:30N 37°58' E 025°37'713.5
2017-Dec-10 01:00N 37°51' E 025°40'713.4
2017-Dec-10 00:30N 37°45' E 025°43'713.4
2017-Dec-10 00:00N 37°39' E 025°46'713.6
2017-Dec-09 23:30N 37°32' E 025°49'713.4
2017-Dec-09 23:00N 37°26' E 025°52'612.2
2017-Dec-09 22:30N 37°22' E 025°58'612.5
2017-Dec-09 22:00N 37°19' E 026°05'612.6
2017-Dec-09 21:30N 37°16' E 026°12'612.9
2017-Dec-09 21:00N 37°13' E 026°18'713.0
2017-Dec-09 20:30N 37°09' E 026°26'813.1
2017-Dec-09 19:55N 37°06' E 026°34'512.1
2017-Dec-09 19:28N 37°02' E 026°38'613.6
2017-Dec-09 19:00N 36°55' E 026°39'713.4
2017-Dec-09 18:30N 36°49' E 026°40'713.3
2017-Dec-09 18:00N 36°42' E 026°42'713.4
2017-Dec-09 17:30N 36°36' E 026°44'713.3
2017-Dec-09 17:00N 36°30' E 026°49'713.4
2017-Dec-09 16:27N 36°25' E 026°55'1413.3
2017-Dec-09 15:26N 36°14' E 027°06'  

Dump ship's entire track history